Aracuai, Brazil
Current Conditions -  °F | °C
As of 2:00 PM on Friday 21 Nov 2014 (Local Time) from SBMK Reporting Station
Scattered Clouds Scattered Clouds  
Wind Chill: 88°   Ceiling: Unl
Heat Index: 88°   Visibility: 6mi
Dew Point: 59°   Wind: 7mph
Humidity: 38%   Direction: NA
Pressure: 30"   Gusts: NA
Location:  16.86°S, 42.07°W
Report Text: SBMK 211600Z VRB06KT 9999 SCT048 31/15 Q1016
Loading
Personal Weather Stations






























Interactive Weather Map New forecast layout! Learn more

10-Day Weather Forecast

Advertisements
Track Severe Weather on mobile